sensor_id;sensor_type;location;lat;lon;timestamp;pressure;altitude;pressure_sealevel;temperature;humidity
9855;BME280;4966;48.112;9.282;2023-06-22T00:02:13;94716.00;;;21.44;84.61
9855;BME280;4966;48.112;9.282;2023-06-22T00:04:39;94717.25;;;21.36;84.86
9855;BME280;4966;48.112;9.282;2023-06-22T00:07:04;94712.06;;;21.38;84.38
9855;BME280;4966;48.112;9.282;2023-06-22T00:09:31;94717.63;;;21.41;84.34
9855;BME280;4966;48.112;9.282;2023-06-22T00:11:56;94727.88;;;21.44;83.71
9855;BME280;4966;48.112;9.282;2023-06-22T00:14:21;94721.78;;;21.64;82.75
9855;BME280;4966;48.112;9.282;2023-06-22T00:16:47;94722.97;;;21.63;82.69
9855;BME280;4966;48.112;9.282;2023-06-22T00:19:13;94732.00;;;21.71;81.98
9855;BME280;4966;48.112;9.282;2023-06-22T00:21:39;94733.88;;;21.84;81.30
9855;BME280;4966;48.112;9.282;2023-06-22T00:24:04;94725.97;;;21.83;81.11
9855;BME280;4966;48.112;9.282;2023-06-22T00:26:31;94723.56;;;21.88;80.82
9855;BME280;4966;48.112;9.282;2023-06-22T00:28:56;94721.19;;;21.87;80.81
9855;BME280;4966;48.112;9.282;2023-06-22T00:31:21;94722.47;;;21.79;81.02
9855;BME280;4966;48.112;9.282;2023-06-22T00:33:47;94720.81;;;21.85;81.06
9855;BME280;4966;48.112;9.282;2023-06-22T00:36:12;94720.47;;;21.79;81.39
9855;BME280;4966;48.112;9.282;2023-06-22T00:38:41;94718.41;;;21.87;80.54
9855;BME280;4966;48.112;9.282;2023-06-22T00:41:07;94723.47;;;21.51;83.05
9855;BME280;4966;48.112;9.282;2023-06-22T00:43:32;94727.00;;;21.55;83.14
9855;BME280;4966;48.112;9.282;2023-06-22T00:45:57;94730.56;;;21.55;83.24
9855;BME280;4966;48.112;9.282;2023-06-22T00:48:23;94723.75;;;21.63;82.54
9855;BME280;4966;48.112;9.282;2023-06-22T00:50:49;94719.94;;;21.50;83.20
9855;BME280;4966;48.112;9.282;2023-06-22T00:53:16;94716.31;;;21.57;82.89
9855;BME280;4966;48.112;9.282;2023-06-22T00:55:44;94723.88;;;21.49;83.47
9855;BME280;4966;48.112;9.282;2023-06-22T00:58:10;94715.50;;;21.60;82.41
9855;BME280;4966;48.112;9.282;2023-06-22T01:00:37;94717.56;;;21.49;83.03
9855;BME280;4966;48.112;9.282;2023-06-22T01:03:03;94721.59;;;21.33;84.21
9855;BME280;4966;48.112;9.282;2023-06-22T01:05:29;94723.94;;;21.38;83.86
9855;BME280;4966;48.112;9.282;2023-06-22T01:08:05;94720.03;;;21.32;84.30
9855;BME280;4966;48.112;9.282;2023-06-22T01:10:41;94721.28;;;21.20;84.79
9855;BME280;4966;48.112;9.282;2023-06-22T01:16:06;94712.69;;;21.08;85.84
9855;BME280;4966;48.112;9.282;2023-06-22T01:18:34;94718.59;;;21.10;85.46
9855;BME280;4966;48.112;9.282;2023-06-22T01:21:02;94719.06;;;20.97;86.45
9855;BME280;4966;48.112;9.282;2023-06-22T01:23:46;94719.03;;;21.01;86.04
9855;BME280;4966;48.112;9.282;2023-06-22T01:26:22;94717.09;;;20.98;86.37
9855;BME280;4966;48.112;9.282;2023-06-22T01:28:54;94703.66;;;20.96;86.54
9855;BME280;4966;48.112;9.282;2023-06-22T01:31:23;94714.38;;;20.87;87.24
9855;BME280;4966;48.112;9.282;2023-06-22T01:33:58;94720.44;;;20.64;88.61
9855;BME280;4966;48.112;9.282;2023-06-22T01:36:25;94713.34;;;20.59;89.27
9855;BME280;4966;48.112;9.282;2023-06-22T01:38:52;94714.94;;;20.46;90.17
9855;BME280;4966;48.112;9.282;2023-06-22T01:41:19;94719.69;;;20.42;90.31
9855;BME280;4966;48.112;9.282;2023-06-22T01:43:45;94717.28;;;20.55;89.21
9855;BME280;4966;48.112;9.282;2023-06-22T01:46:11;94719.66;;;20.56;89.30
9855;BME280;4966;48.112;9.282;2023-06-22T01:48:38;94728.34;;;20.48;89.76
9855;BME280;4966;48.112;9.282;2023-06-22T01:51:04;94727.56;;;20.54;88.82
9855;BME280;4966;48.112;9.282;2023-06-22T01:53:29;94737.06;;;20.39;89.87
9855;BME280;4966;48.112;9.282;2023-06-22T01:55:56;94740.59;;;20.43;89.74
9855;BME280;4966;48.112;9.282;2023-06-22T01:58:25;94742.56;;;20.46;89.68
9855;BME280;4966;48.112;9.282;2023-06-22T02:01:11;94742.16;;;20.58;88.20
9855;BME280;4966;48.112;9.282;2023-06-22T02:03:44;94734.25;;;20.53;88.62
9855;BME280;4966;48.112;9.282;2023-06-22T02:06:17;94738.22;;;20.59;87.64
9855;BME280;4966;48.112;9.282;2023-06-22T02:08:49;94742.56;;;20.46;88.06
9855;BME280;4966;48.112;9.282;2023-06-22T02:11:18;94730.34;;;20.36;88.57
9855;BME280;4966;48.112;9.282;2023-06-22T02:13:45;94736.31;;;20.31;89.61
9855;BME280;4966;48.112;9.282;2023-06-22T02:16:12;94734.72;;;20.34;89.50
9855;BME280;4966;48.112;9.282;2023-06-22T02:18:38;94737.44;;;20.41;88.60
9855;BME280;4966;48.112;9.282;2023-06-22T02:21:05;94743.41;;;20.36;89.05
9855;BME280;4966;48.112;9.282;2023-06-22T02:23:31;94750.91;;;20.25;90.35
9855;BME280;4966;48.112;9.282;2023-06-22T02:25:58;94746.97;;;20.33;89.85
9855;BME280;4966;48.112;9.282;2023-06-22T02:28:23;94741.41;;;20.40;88.82
9855;BME280;4966;48.112;9.282;2023-06-22T02:30:48;94735.50;;;20.27;88.21
9855;BME280;4966;48.112;9.282;2023-06-22T02:33:14;94734.34;;;20.17;89.46
9855;BME280;4966;48.112;9.282;2023-06-22T02:35:39;94729.63;;;20.11;89.99
9855;BME280;4966;48.112;9.282;2023-06-22T02:38:04;94732.81;;;20.09;89.45
9855;BME280;4966;48.112;9.282;2023-06-22T02:40:30;94729.25;;;20.12;89.36
9855;BME280;4966;48.112;9.282;2023-06-22T02:42:56;94730.47;;;19.97;89.30
9855;BME280;4966;48.112;9.282;2023-06-22T02:45:27;94723.78;;;19.87;89.64
9855;BME280;4966;48.112;9.282;2023-06-22T02:47:52;94725.72;;;19.58;92.50
9855;BME280;4966;48.112;9.282;2023-06-22T02:50:18;94724.97;;;19.68;92.31
9855;BME280;4966;48.112;9.282;2023-06-22T02:52:43;94719.84;;;19.70;92.12
9855;BME280;4966;48.112;9.282;2023-06-22T02:55:08;94722.59;;;19.70;92.64
9855;BME280;4966;48.112;9.282;2023-06-22T02:57:34;94711.53;;;19.42;94.76
9855;BME280;4966;48.112;9.282;2023-06-22T02:59:59;94709.56;;;19.46;94.71
9855;BME280;4966;48.112;9.282;2023-06-22T03:02:25;94705.25;;;19.59;94.11
9855;BME280;4966;48.112;9.282;2023-06-22T03:04:51;94694.97;;;19.49;95.28
9855;BME280;4966;48.112;9.282;2023-06-22T03:07:18;94706.84;;;19.71;93.98
9855;BME280;4966;48.112;9.282;2023-06-22T03:09:44;94704.06;;;19.74;93.17
9855;BME280;4966;48.112;9.282;2023-06-22T03:12:09;94719.44;;;19.83;92.57
9855;BME280;4966;48.112;9.282;2023-06-22T03:14:34;94723.78;;;19.80;92.28
9855;BME280;4966;48.112;9.282;2023-06-22T03:17:00;94712.34;;;19.78;92.32
9855;BME280;4966;48.112;9.282;2023-06-22T03:19:28;94713.13;;;19.79;92.36
9855;BME280;4966;48.112;9.282;2023-06-22T03:21:54;94713.53;;;19.70;92.74
9855;BME280;4966;48.112;9.282;2023-06-22T03:24:19;94719.47;;;19.75;92.60
9855;BME280;4966;48.112;9.282;2023-06-22T03:26:45;94711.94;;;19.83;91.90
9855;BME280;4966;48.112;9.282;2023-06-22T03:29:12;94723.38;;;19.82;91.76
9855;BME280;4966;48.112;9.282;2023-06-22T03:31:37;94715.50;;;19.94;90.78
9855;BME280;4966;48.112;9.282;2023-06-22T03:34:02;94714.28;;;19.92;90.09
9855;BME280;4966;48.112;9.282;2023-06-22T03:36:28;94704.84;;;19.86;90.43
9855;BME280;4966;48.112;9.282;2023-06-22T03:38:53;94709.19;;;19.80;90.80
9855;BME280;4966;48.112;9.282;2023-06-22T03:41:18;94706.00;;;19.85;90.74
9855;BME280;4966;48.112;9.282;2023-06-22T03:43:44;94705.63;;;19.90;89.63
9855;BME280;4966;48.112;9.282;2023-06-22T03:46:09;94713.53;;;19.81;89.54
9855;BME280;4966;48.112;9.282;2023-06-22T03:48:34;94712.75;;;19.73;90.08
9855;BME280;4966;48.112;9.282;2023-06-22T03:51:01;94722.22;;;19.68;90.70
9855;BME280;4966;48.112;9.282;2023-06-22T03:53:28;94709.97;;;19.59;91.70
9855;BME280;4966;48.112;9.282;2023-06-22T03:55:53;94723.00;;;19.69;91.32
9855;BME280;4966;48.112;9.282;2023-06-22T03:58:19;94717.44;;;19.65;91.78
9855;BME280;4966;48.112;9.282;2023-06-22T04:00:51;94725.34;;;19.85;90.14
9855;BME280;4966;48.112;9.282;2023-06-22T04:03:17;94739.53;;;19.80;90.43
9855;BME280;4966;48.112;9.282;2023-06-22T04:05:46;94737.19;;;19.92;90.25
9855;BME280;4966;48.112;9.282;2023-06-22T04:08:13;94737.16;;;19.96;89.47
9855;BME280;4966;48.112;9.282;2023-06-22T04:10:38;94739.94;;;19.85;89.96
9855;BME280;4966;48.112;9.282;2023-06-22T04:13:03;94730.09;;;19.81;88.81
9855;BME280;4966;48.112;9.282;2023-06-22T04:15:29;94726.13;;;19.82;88.94
9855;BME280;4966;48.112;9.282;2023-06-22T04:17:55;94724.53;;;19.91;88.56
9855;BME280;4966;48.112;9.282;2023-06-22T04:20:20;94719.44;;;19.83;89.16
9855;BME280;4966;48.112;9.282;2023-06-22T04:22:46;94711.13;;;19.93;90.18
9855;BME280;4966;48.112;9.282;2023-06-22T04:25:12;94704.03;;;20.07;88.75
9855;BME280;4966;48.112;9.282;2023-06-22T04:27:37;94713.47;;;20.16;88.30
9855;BME280;4966;48.112;9.282;2023-06-22T04:30:06;94719.38;;;20.15;89.29
9855;BME280;4966;48.112;9.282;2023-06-22T04:32:33;94720.88;;;20.37;88.37
9855;BME280;4966;48.112;9.282;2023-06-22T04:34:58;94711.75;;;20.51;87.64
9855;BME280;4966;48.112;9.282;2023-06-22T04:37:25;94702.34;;;20.38;87.62
9855;BME280;4966;48.112;9.282;2023-06-22T04:39:51;94707.81;;;20.56;85.29
9855;BME280;4966;48.112;9.282;2023-06-22T04:42:16;94697.78;;;20.87;84.99
9855;BME280;4966;48.112;9.282;2023-06-22T04:44:42;94694.97;;;20.94;82.90
9855;BME280;4966;48.112;9.282;2023-06-22T04:47:07;94687.28;;;21.23;82.71
9855;BME280;4966;48.112;9.282;2023-06-22T04:49:34;94688.66;;;21.53;80.00
9855;BME280;4966;48.112;9.282;2023-06-22T04:52:04;94697.44;;;21.90;78.77
9855;BME280;4966;48.112;9.282;2023-06-22T04:54:30;94685.00;;;21.67;79.36
9855;BME280;4966;48.112;9.282;2023-06-22T04:56:58;94686.28;;;21.97;77.02
9855;BME280;4966;48.112;9.282;2023-06-22T04:59:24;94694.25;;;21.91;77.09
9855;BME280;4966;48.112;9.282;2023-06-22T05:01:54;94693.44;;;22.32;75.22
9855;BME280;4966;48.112;9.282;2023-06-22T05:04:21;94685.00;;;22.05;74.84
9855;BME280;4966;48.112;9.282;2023-06-22T05:06:46;94685.22;;;22.25;75.37
9855;BME280;4966;48.112;9.282;2023-06-22T05:09:11;94688.47;;;22.50;73.39
9855;BME280;4966;48.112;9.282;2023-06-22T05:11:37;94679.44;;;22.46;74.56
9855;BME280;4966;48.112;9.282;2023-06-22T05:14:03;94673.97;;;22.39;75.42
9855;BME280;4966;48.112;9.282;2023-06-22T05:16:28;94674.25;;;22.48;74.46
9855;BME280;4966;48.112;9.282;2023-06-22T05:18:54;94685.13;;;22.32;75.96
9855;BME280;4966;48.112;9.282;2023-06-22T05:21:27;94696.84;;;22.47;74.71
9855;BME280;4966;48.112;9.282;2023-06-22T05:23:53;94684.50;;;22.14;75.58
9855;BME280;4966;48.112;9.282;2023-06-22T05:26:19;94686.78;;;22.26;75.50
9855;BME280;4966;48.112;9.282;2023-06-22T05:28:45;94684.19;;;22.08;75.77
9855;BME280;4966;48.112;9.282;2023-06-22T05:31:15;94690.09;;;22.10;76.21
9855;BME280;4966;48.112;9.282;2023-06-22T05:33:41;94692.00;;;22.55;74.65
9855;BME280;4966;48.112;9.282;2023-06-22T05:36:07;94694.00;;;22.50;74.94
9855;BME280;4966;48.112;9.282;2023-06-22T05:38:32;94684.47;;;22.21;77.05
9855;BME280;4966;48.112;9.282;2023-06-22T05:40:58;94679.75;;;22.52;74.71
9855;BME280;4966;48.112;9.282;2023-06-22T05:43:23;94696.84;;;22.47;75.11
9855;BME280;4966;48.112;9.282;2023-06-22T05:45:48;94703.38;;;22.94;72.87
9855;BME280;4966;48.112;9.282;2023-06-22T05:48:14;94699.31;;;23.03;72.55
9855;BME280;4966;48.112;9.282;2023-06-22T05:50:39;94694.06;;;22.47;74.78
9855;BME280;4966;48.112;9.282;2023-06-22T05:53:04;94695.91;;;22.57;74.28
9855;BME280;4966;48.112;9.282;2023-06-22T05:55:32;94703.50;;;22.84;73.77
9855;BME280;4966;48.112;9.282;2023-06-22T05:57:57;94710.56;;;22.58;74.73
9855;BME280;4966;48.112;9.282;2023-06-22T06:00:23;94700.69;;;22.87;74.25
9855;BME280;4966;48.112;9.282;2023-06-22T06:02:49;94697.22;;;22.80;73.27
9855;BME280;4966;48.112;9.282;2023-06-22T06:05:14;94692.84;;;22.82;74.91
9855;BME280;4966;48.112;9.282;2023-06-22T06:07:44;94690.53;;;22.43;74.42
9855;BME280;4966;48.112;9.282;2023-06-22T06:10:10;94706.69;;;22.14;76.62
9855;BME280;4966;48.112;9.282;2023-06-22T06:12:35;94706.78;;;22.41;75.80
9855;BME280;4966;48.112;9.282;2023-06-22T06:15:01;94698.66;;;22.26;76.30
9855;BME280;4966;48.112;9.282;2023-06-22T06:17:27;94695.06;;;22.29;76.97
9855;BME280;4966;48.112;9.282;2023-06-22T06:19:52;94687.84;;;22.70;76.21
9855;BME280;4966;48.112;9.282;2023-06-22T06:22:18;94696.28;;;23.21;73.84
9855;BME280;4966;48.112;9.282;2023-06-22T06:24:44;94696.22;;;22.93;73.39
9855;BME280;4966;48.112;9.282;2023-06-22T06:27:09;94692.66;;;23.24;72.23
9855;BME280;4966;48.112;9.282;2023-06-22T06:29:34;94680.84;;;23.43;71.16
9855;BME280;4966;48.112;9.282;2023-06-22T06:32:00;94684.84;;;23.15;72.91
9855;BME280;4966;48.112;9.282;2023-06-22T06:34:25;94699.00;;;23.51;71.41
9855;BME280;4966;48.112;9.282;2023-06-22T06:36:50;94681.19;;;22.91;73.50
9855;BME280;4966;48.112;9.282;2023-06-22T06:39:16;94685.53;;;23.50;72.23
9855;BME280;4966;48.112;9.282;2023-06-22T06:41:42;94678.91;;;23.17;71.75
9855;BME280;4966;48.112;9.282;2023-06-22T06:44:07;94691.44;;;23.52;72.25
9855;BME280;4966;48.112;9.282;2023-06-22T06:46:32;94686.34;;;23.70;70.87
9855;BME280;4966;48.112;9.282;2023-06-22T06:48:58;94683.94;;;23.72;71.19
9855;BME280;4966;48.112;9.282;2023-06-22T06:51:23;94693.81;;;23.77;68.98
9855;BME280;4966;48.112;9.282;2023-06-22T06:53:49;94682.03;;;23.93;69.90
9855;BME280;4966;48.112;9.282;2023-06-22T06:56:14;94680.78;;;23.70;70.23
9855;BME280;4966;48.112;9.282;2023-06-22T06:58:43;94669.88;;;23.36;72.07
9855;BME280;4966;48.112;9.282;2023-06-22T07:01:11;94681.00;;;23.60;71.13
9855;BME280;4966;48.112;9.282;2023-06-22T07:03:37;94687.78;;;23.82;69.28
9855;BME280;4966;48.112;9.282;2023-06-22T07:06:02;94684.41;;;23.94;68.65
9855;BME280;4966;48.112;9.282;2023-06-22T07:08:27;94686.94;;;24.29;68.93
9855;BME280;4966;48.112;9.282;2023-06-22T07:10:52;94684.44;;;24.34;67.84
9855;BME280;4966;48.112;9.282;2023-06-22T07:13:18;94687.00;;;24.25;66.90
9855;BME280;4966;48.112;9.282;2023-06-22T07:15:43;94689.22;;;24.94;65.55
9855;BME280;4966;48.112;9.282;2023-06-22T07:18:09;94695.44;;;24.81;65.58
9855;BME280;4966;48.112;9.282;2023-06-22T07:20:34;94698.31;;;24.58;65.05
9855;BME280;4966;48.112;9.282;2023-06-22T07:23:00;94685.53;;;24.40;65.85
9855;BME280;4966;48.112;9.282;2023-06-22T07:25:25;94685.19;;;24.58;65.84
9855;BME280;4966;48.112;9.282;2023-06-22T07:28:01;94687.81;;;24.86;66.76
9855;BME280;4966;48.112;9.282;2023-06-22T07:30:27;94684.09;;;25.29;65.44
9855;BME280;4966;48.112;9.282;2023-06-22T07:32:53;94670.00;;;25.52;64.83
9855;BME280;4966;48.112;9.282;2023-06-22T07:35:19;94677.31;;;25.79;63.62
9855;BME280;4966;48.112;9.282;2023-06-22T07:37:45;94666.41;;;25.84;63.00
9855;BME280;4966;48.112;9.282;2023-06-22T07:40:11;94664.53;;;26.27;61.16
9855;BME280;4966;48.112;9.282;2023-06-22T07:42:36;94661.94;;;26.20;60.73
9855;BME280;4966;48.112;9.282;2023-06-22T07:45:03;94654.63;;;26.09;60.48
9855;BME280;4966;48.112;9.282;2023-06-22T07:47:28;94646.75;;;25.75;60.87
9855;BME280;4966;48.112;9.282;2023-06-22T07:49:55;94649.63;;;25.72;61.06
9855;BME280;4966;48.112;9.282;2023-06-22T07:52:23;94644.13;;;26.01;61.12
9855;BME280;4966;48.112;9.282;2023-06-22T07:54:48;94648.84;;;26.75;60.93
9855;BME280;4966;48.112;9.282;2023-06-22T07:57:13;94642.41;;;27.04;59.36
9855;BME280;4966;48.112;9.282;2023-06-22T07:59:39;94634.56;;;26.86;60.21
9855;BME280;4966;48.112;9.282;2023-06-22T08:02:05;94635.44;;;26.70;59.08
9855;BME280;4966;48.112;9.282;2023-06-22T08:04:30;94643.91;;;26.79;58.43
9855;BME280;4966;48.112;9.282;2023-06-22T08:06:57;94639.75;;;27.26;57.61
9855;BME280;4966;48.112;9.282;2023-06-22T08:09:22;94641.41;;;27.49;57.09
9855;BME280;4966;48.112;9.282;2023-06-22T08:11:47;94651.88;;;27.70;56.67
9855;BME280;4966;48.112;9.282;2023-06-22T08:14:14;94647.00;;;27.96;54.51
9855;BME280;4966;48.112;9.282;2023-06-22T08:16:39;94640.63;;;28.31;53.83
9855;BME280;4966;48.112;9.282;2023-06-22T08:19:06;94640.22;;;28.19;51.43
9855;BME280;4966;48.112;9.282;2023-06-22T08:21:31;94646.66;;;28.29;52.50
9855;BME280;4966;48.112;9.282;2023-06-22T08:23:56;94648.38;;;28.71;52.29
9855;BME280;4966;48.112;9.282;2023-06-22T08:26:21;94654.00;;;28.49;53.48
9855;BME280;4966;48.112;9.282;2023-06-22T08:28:47;94659.06;;;29.57;50.94
9855;BME280;4966;48.112;9.282;2023-06-22T08:31:12;94677.63;;;29.63;50.13
9855;BME280;4966;48.112;9.282;2023-06-22T08:33:39;94711.69;;;28.99;50.74
9855;BME280;4966;48.112;9.282;2023-06-22T08:36:04;94730.00;;;28.47;53.35
9855;BME280;4966;48.112;9.282;2023-06-22T08:38:31;94741.97;;;28.35;51.81
9855;BME280;4966;48.112;9.282;2023-06-22T08:40:56;94749.47;;;28.38;52.83
9855;BME280;4966;48.112;9.282;2023-06-22T08:43:22;94741.44;;;28.27;53.30
9855;BME280;4966;48.112;9.282;2023-06-22T08:45:47;94735.81;;;28.40;54.34
9855;BME280;4966;48.112;9.282;2023-06-22T08:48:13;94740.00;;;28.23;53.33
9855;BME280;4966;48.112;9.282;2023-06-22T08:50:38;94738.59;;;28.05;54.60
9855;BME280;4966;48.112;9.282;2023-06-22T08:53:05;94744.66;;;27.78;55.77
9855;BME280;4966;48.112;9.282;2023-06-22T08:55:31;94725.13;;;28.26;53.64
9855;BME280;4966;48.112;9.282;2023-06-22T08:57:56;94723.41;;;27.93;53.00
9855;BME280;4966;48.112;9.282;2023-06-22T09:00:22;94727.66;;;27.98;53.51
9855;BME280;4966;48.112;9.282;2023-06-22T09:02:47;94733.13;;;27.76;54.04
9855;BME280;4966;48.112;9.282;2023-06-22T09:05:13;94722.28;;;27.78;54.73
9855;BME280;4966;48.112;9.282;2023-06-22T09:07:39;94730.25;;;27.92;55.07
9855;BME280;4966;48.112;9.282;2023-06-22T09:10:05;94722.81;;;28.11;53.46
9855;BME280;4966;48.112;9.282;2023-06-22T09:12:30;94710.28;;;28.95;51.74
9855;BME280;4966;48.112;9.282;2023-06-22T09:14:56;94700.47;;;29.12;52.50
9855;BME280;4966;48.112;9.282;2023-06-22T09:17:22;94713.44;;;28.40;52.29
9855;BME280;4966;48.112;9.282;2023-06-22T09:19:47;94708.47;;;28.79;52.21
9855;BME280;4966;48.112;9.282;2023-06-22T09:22:13;94698.22;;;29.29;49.78
9855;BME280;4966;48.112;9.282;2023-06-22T09:24:39;94688.19;;;28.97;49.48
9855;BME280;4966;48.112;9.282;2023-06-22T09:27:05;94693.25;;;29.33;49.39
9855;BME280;4966;48.112;9.282;2023-06-22T09:29:30;94683.97;;;28.92;51.96
9855;BME280;4966;48.112;9.282;2023-06-22T09:31:58;94674.38;;;28.71;52.72
9855;BME280;4966;48.112;9.282;2023-06-22T09:34:24;94676.00;;;28.59;51.15
9855;BME280;4966;48.112;9.282;2023-06-22T09:36:49;94680.09;;;29.21;49.99
9855;BME280;4966;48.112;9.282;2023-06-22T09:39:14;94662.69;;;29.57;48.93
9855;BME280;4966;48.112;9.282;2023-06-22T09:41:40;94659.72;;;30.29;50.24
9855;BME280;4966;48.112;9.282;2023-06-22T09:44:05;94664.53;;;30.10;47.18
9855;BME280;4966;48.112;9.282;2023-06-22T09:46:30;94651.59;;;30.31;47.32
9855;BME280;4966;48.112;9.282;2023-06-22T09:48:56;94655.19;;;30.59;46.74
9855;BME280;4966;48.112;9.282;2023-06-22T09:51:22;94642.59;;;31.25;46.05
9855;BME280;4966;48.112;9.282;2023-06-22T09:53:48;94648.28;;;31.49;44.82
9855;BME280;4966;48.112;9.282;2023-06-22T09:56:14;94642.56;;;31.91;43.75
9855;BME280;4966;48.112;9.282;2023-06-22T09:58:44;94644.31;;;32.13;42.04
9855;BME280;4966;48.112;9.282;2023-06-22T10:01:11;94643.22;;;32.34;42.46
9855;BME280;4966;48.112;9.282;2023-06-22T10:03:37;94637.72;;;32.40;41.12
9855;BME280;4966;48.112;9.282;2023-06-22T10:06:02;94636.00;;;31.94;41.17
9855;BME280;4966;48.112;9.282;2023-06-22T10:08:28;94634.00;;;31.86;42.73
9855;BME280;4966;48.112;9.282;2023-06-22T10:10:53;94637.22;;;31.93;42.44
9855;BME280;4966;48.112;9.282;2023-06-22T10:13:19;94626.81;;;32.33;41.50
9855;BME280;4966;48.112;9.282;2023-06-22T10:15:44;94621.38;;;31.81;42.33
9855;BME280;4966;48.112;9.282;2023-06-22T10:18:15;94626.63;;;31.31;44.58
9855;BME280;4966;48.112;9.282;2023-06-22T10:20:41;94637.94;;;32.51;40.03
9855;BME280;4966;48.112;9.282;2023-06-22T10:23:06;94632.94;;;33.15;39.18
9855;BME280;4966;48.112;9.282;2023-06-22T10:25:31;94642.06;;;33.24;40.33
9855;BME280;4966;48.112;9.282;2023-06-22T10:27:57;94636.44;;;33.24;39.48
9855;BME280;4966;48.112;9.282;2023-06-22T10:30:22;94635.44;;;33.57;41.92
9855;BME280;4966;48.112;9.282;2023-06-22T10:32:48;94623.09;;;34.10;41.29
9855;BME280;4966;48.112;9.282;2023-06-22T10:35:14;94627.97;;;34.10;41.82
9855;BME280;4966;48.112;9.282;2023-06-22T10:37:45;94631.06;;;34.33;42.54
9855;BME280;4966;48.112;9.282;2023-06-22T10:40:14;94627.91;;;34.71;43.06
9855;BME280;4966;48.112;9.282;2023-06-22T10:42:41;94628.78;;;35.09;39.21
9855;BME280;4966;48.112;9.282;2023-06-22T10:45:07;94624.84;;;35.27;41.54
9855;BME280;4966;48.112;9.282;2023-06-22T10:47:33;94631.97;;;35.54;39.70
9855;BME280;4966;48.112;9.282;2023-06-22T10:49:59;94624.78;;;35.96;38.71
9855;BME280;4966;48.112;9.282;2023-06-22T10:52:24;94633.06;;;36.06;39.27
9855;BME280;4966;48.112;9.282;2023-06-22T10:54:49;94624.22;;;36.35;37.87
9855;BME280;4966;48.112;9.282;2023-06-22T10:57:14;94627.88;;;35.98;38.55
9855;BME280;4966;48.112;9.282;2023-06-22T10:59:40;94620.97;;;35.99;37.97
9855;BME280;4966;48.112;9.282;2023-06-22T11:02:05;94619.44;;;36.75;37.82
9855;BME280;4966;48.112;9.282;2023-06-22T11:04:30;94610.84;;;35.50;38.35
9855;BME280;4966;48.112;9.282;2023-06-22T11:06:56;94613.47;;;35.53;37.68
9855;BME280;4966;48.112;9.282;2023-06-22T11:09:21;94610.66;;;35.22;38.37
9855;BME280;4966;48.112;9.282;2023-06-22T11:11:50;94607.06;;;35.21;36.61
9855;BME280;4966;48.112;9.282;2023-06-22T11:14:16;94615.22;;;34.87;38.54
9855;BME280;4966;48.112;9.282;2023-06-22T11:16:41;94621.53;;;34.77;39.11
9855;BME280;4966;48.112;9.282;2023-06-22T11:19:07;94622.88;;;34.14;39.55
9855;BME280;4966;48.112;9.282;2023-06-22T11:21:32;94614.03;;;34.06;39.46
9855;BME280;4966;48.112;9.282;2023-06-22T11:23:58;94619.44;;;33.89;40.18
9855;BME280;4966;48.112;9.282;2023-06-22T11:26:24;94617.06;;;34.44;40.59
9855;BME280;4966;48.112;9.282;2023-06-22T11:28:52;94622.16;;;34.60;40.54
9855;BME280;4966;48.112;9.282;2023-06-22T11:31:17;94615.03;;;34.03;40.45
9855;BME280;4966;48.112;9.282;2023-06-22T11:33:42;94598.75;;;34.86;40.24
9855;BME280;4966;48.112;9.282;2023-06-22T11:36:10;94599.13;;;33.85;40.56
9855;BME280;4966;48.112;9.282;2023-06-22T11:38:36;94600.03;;;34.38;41.22
9855;BME280;4966;48.112;9.282;2023-06-22T11:41:05;94603.47;;;34.48;39.81
9855;BME280;4966;48.112;9.282;2023-06-22T11:43:30;94605.88;;;36.14;38.23
9855;BME280;4966;48.112;9.282;2023-06-22T11:45:56;94615.72;;;35.87;37.15
9855;BME280;4966;48.112;9.282;2023-06-22T11:48:23;94618.09;;;35.94;38.44
9855;BME280;4966;48.112;9.282;2023-06-22T11:50:48;94610.84;;;35.50;37.71
9855;BME280;4966;48.112;9.282;2023-06-22T11:53:14;94619.00;;;37.11;35.78
9855;BME280;4966;48.112;9.282;2023-06-22T11:55:41;94614.13;;;37.39;34.51
9855;BME280;4966;48.112;9.282;2023-06-22T11:58:07;94618.22;;;36.16;36.95
9855;BME280;4966;48.112;9.282;2023-06-22T12:00:33;94623.19;;;36.33;37.65
9855;BME280;4966;48.112;9.282;2023-06-22T12:02:58;94620.13;;;35.88;37.43
9855;BME280;4966;48.112;9.282;2023-06-22T12:05:23;94625.16;;;36.15;37.53
9855;BME280;4966;48.112;9.282;2023-06-22T12:07:50;94619.16;;;36.56;35.95
9855;BME280;4966;48.112;9.282;2023-06-22T12:10:15;94619.22;;;37.01;36.75
9855;BME280;4966;48.112;9.282;2023-06-22T12:12:41;94616.31;;;36.56;36.56
9855;BME280;4966;48.112;9.282;2023-06-22T12:15:08;94623.09;;;36.98;36.44
9855;BME280;4966;48.112;9.282;2023-06-22T12:17:34;94617.66;;;36.67;36.75
9855;BME280;4966;48.112;9.282;2023-06-22T12:19:59;94623.00;;;35.56;38.52
9855;BME280;4966;48.112;9.282;2023-06-22T12:22:25;94620.44;;;34.48;41.11
9855;BME280;4966;48.112;9.282;2023-06-22T12:24:50;94613.97;;;34.01;40.72
9855;BME280;4966;48.112;9.282;2023-06-22T12:27:17;94612.25;;;34.50;39.35
9855;BME280;4966;48.112;9.282;2023-06-22T12:29:45;94615.03;;;34.97;39.06
9855;BME280;4966;48.112;9.282;2023-06-22T12:32:10;94617.81;;;35.17;38.70
9855;BME280;4966;48.112;9.282;2023-06-22T12:34:38;94618.94;;;34.73;39.38
9855;BME280;4966;48.112;9.282;2023-06-22T12:37:04;94610.66;;;35.22;38.49
9855;BME280;4966;48.112;9.282;2023-06-22T12:39:30;94609.59;;;35.19;37.82
9855;BME280;4966;48.112;9.282;2023-06-22T12:41:56;94605.97;;;36.42;34.98
9855;BME280;4966;48.112;9.282;2023-06-22T12:44:21;94611.28;;;35.37;36.73
9855;BME280;4966;48.112;9.282;2023-06-22T12:46:46;94600.38;;;36.59;34.99
9855;BME280;4966;48.112;9.282;2023-06-22T12:49:12;94612.53;;;36.88;34.76
9855;BME280;4966;48.112;9.282;2023-06-22T12:51:41;94608.63;;;36.62;34.38
9855;BME280;4966;48.112;9.282;2023-06-22T12:54:07;94610.22;;;36.09;35.57
9855;BME280;4966;48.112;9.282;2023-06-22T12:56:32;94615.22;;;34.61;37.67
9855;BME280;4966;48.112;9.282;2023-06-22T12:58:58;94612.69;;;34.63;39.25
9855;BME280;4966;48.112;9.282;2023-06-22T13:01:24;94615.81;;;34.97;37.83
9855;BME280;4966;48.112;9.282;2023-06-22T13:03:50;94603.44;;;34.63;38.63
9855;BME280;4966;48.112;9.282;2023-06-22T13:06:15;94607.03;;;34.89;39.05
9855;BME280;4966;48.112;9.282;2023-06-22T13:08:40;94607.03;;;33.81;39.85
9855;BME280;4966;48.112;9.282;2023-06-22T13:11:06;94602.75;;;33.86;39.29
9855;BME280;4966;48.112;9.282;2023-06-22T13:13:31;94607.09;;;33.52;40.22
9855;BME280;4966;48.112;9.282;2023-06-22T13:15:56;94597.38;;;33.17;41.62
9855;BME280;4966;48.112;9.282;2023-06-22T13:18:21;94601.25;;;32.90;42.17
9855;BME280;4966;48.112;9.282;2023-06-22T13:20:47;94589.34;;;33.45;41.02